sensor_id;sensor_type;location;lat;lon;timestamp;P1;durP1;ratioP1;P2;durP2;ratioP2
20972;SDS011;10645;52.370;13.314;2024-01-30T00:01:18;4.00;;;1.57;;
20972;SDS011;10645;52.370;13.314;2024-01-30T00:03:45;0.93;;;0.93;;
20972;SDS011;10645;52.370;13.314;2024-01-30T00:06:11;3.77;;;2.67;;
20972;SDS011;10645;52.370;13.314;2024-01-30T00:08:37;2.23;;;2.03;;
20972;SDS011;10645;52.370;13.314;2024-01-30T00:11:03;5.10;;;2.70;;
20972;SDS011;10645;52.370;13.314;2024-01-30T00:13:29;3.93;;;2.37;;
20972;SDS011;10645;52.370;13.314;2024-01-30T00:15:56;1.77;;;1.67;;
20972;SDS011;10645;52.370;13.314;2024-01-30T00:18:22;1.13;;;1.13;;
20972;SDS011;10645;52.370;13.314;2024-01-30T00:20:48;1.33;;;1.30;;
20972;SDS011;10645;52.370;13.314;2024-01-30T00:23:14;2.40;;;1.57;;
20972;SDS011;10645;52.370;13.314;2024-01-30T00:25:40;2.10;;;1.97;;
20972;SDS011;10645;52.370;13.314;2024-01-30T00:28:06;3.23;;;2.93;;
20972;SDS011;10645;52.370;13.314;2024-01-30T00:30:32;1.50;;;1.27;;
20972;SDS011;10645;52.370;13.314;2024-01-30T00:32:58;2.80;;;1.73;;
20972;SDS011;10645;52.370;13.314;2024-01-30T00:35:24;2.50;;;0.93;;
20972;SDS011;10645;52.370;13.314;2024-01-30T00:37:50;1.83;;;1.60;;
20972;SDS011;10645;52.370;13.314;2024-01-30T00:40:16;1.90;;;1.80;;
20972;SDS011;10645;52.370;13.314;2024-01-30T00:42:43;4.00;;;1.10;;
20972;SDS011;10645;52.370;13.314;2024-01-30T00:45:15;1.40;;;1.23;;
20972;SDS011;10645;52.370;13.314;2024-01-30T00:47:42;4.93;;;3.73;;
20972;SDS011;10645;52.370;13.314;2024-01-30T00:50:09;2.27;;;2.07;;
20972;SDS011;10645;52.370;13.314;2024-01-30T00:52:35;2.17;;;1.67;;
20972;SDS011;10645;52.370;13.314;2024-01-30T00:55:01;0.97;;;0.97;;
20972;SDS011;10645;52.370;13.314;2024-01-30T00:57:28;2.17;;;1.97;;
20972;SDS011;10645;52.370;13.314;2024-01-30T00:59:54;2.10;;;1.93;;
20972;SDS011;10645;52.370;13.314;2024-01-30T01:02:20;9.60;;;3.90;;
20972;SDS011;10645;52.370;13.314;2024-01-30T01:04:46;1.73;;;1.10;;
20972;SDS011;10645;52.370;13.314;2024-01-30T01:07:12;1.97;;;1.87;;
20972;SDS011;10645;52.370;13.314;2024-01-30T01:09:38;4.00;;;1.60;;
20972;SDS011;10645;52.370;13.314;2024-01-30T01:12:05;2.37;;;2.17;;
20972;SDS011;10645;52.370;13.314;2024-01-30T01:14:31;2.33;;;1.60;;
20972;SDS011;10645;52.370;13.314;2024-01-30T01:16:57;1.90;;;1.80;;
20972;SDS011;10645;52.370;13.314;2024-01-30T01:19:23;1.03;;;0.63;;
20972;SDS011;10645;52.370;13.314;2024-01-30T01:21:49;4.10;;;3.00;;
20972;SDS011;10645;52.370;13.314;2024-01-30T01:24:15;1.00;;;1.00;;
20972;SDS011;10645;52.370;13.314;2024-01-30T01:26:41;1.30;;;1.20;;
20972;SDS011;10645;52.370;13.314;2024-01-30T01:29:07;2.63;;;1.53;;
20972;SDS011;10645;52.370;13.314;2024-01-30T01:31:37;8.40;;;2.13;;
20972;SDS011;10645;52.370;13.314;2024-01-30T01:34:11;2.23;;;2.10;;
20972;SDS011;10645;52.370;13.314;2024-01-30T01:36:38;1.80;;;0.73;;
20972;SDS011;10645;52.370;13.314;2024-01-30T01:39:05;1.90;;;1.80;;
20972;SDS011;10645;52.370;13.314;2024-01-30T01:41:31;2.37;;;1.93;;
20972;SDS011;10645;52.370;13.314;2024-01-30T01:43:58;2.27;;;1.27;;
20972;SDS011;10645;52.370;13.314;2024-01-30T01:46:26;1.70;;;1.30;;
20972;SDS011;10645;52.370;13.314;2024-01-30T01:48:53;1.43;;;1.43;;
20972;SDS011;10645;52.370;13.314;2024-01-30T01:51:21;3.57;;;3.27;;
20972;SDS011;10645;52.370;13.314;2024-01-30T01:53:48;2.63;;;1.80;;
20972;SDS011;10645;52.370;13.314;2024-01-30T01:56:14;2.13;;;1.93;;
20972;SDS011;10645;52.370;13.314;2024-01-30T01:58:41;2.73;;;2.33;;
20972;SDS011;10645;52.370;13.314;2024-01-30T02:01:07;2.43;;;1.40;;
20972;SDS011;10645;52.370;13.314;2024-01-30T02:03:34;3.30;;;3.03;;
20972;SDS011;10645;52.370;13.314;2024-01-30T02:06:00;1.77;;;1.50;;
20972;SDS011;10645;52.370;13.314;2024-01-30T02:08:27;1.00;;;1.00;;
20972;SDS011;10645;52.370;13.314;2024-01-30T02:10:54;2.27;;;2.07;;
20972;SDS011;10645;52.370;13.314;2024-01-30T02:13:21;1.53;;;1.17;;
20972;SDS011;10645;52.370;13.314;2024-01-30T02:15:51;4.57;;;2.07;;
20972;SDS011;10645;52.370;13.314;2024-01-30T02:18:18;8.40;;;3.83;;
20972;SDS011;10645;52.370;13.314;2024-01-30T02:20:45;2.33;;;2.23;;
20972;SDS011;10645;52.370;13.314;2024-01-30T02:23:11;3.87;;;2.83;;
20972;SDS011;10645;52.370;13.314;2024-01-30T02:25:41;2.77;;;1.90;;
20972;SDS011;10645;52.370;13.314;2024-01-30T02:28:10;2.97;;;2.43;;
20972;SDS011;10645;52.370;13.314;2024-01-30T02:30:38;3.27;;;2.77;;
20972;SDS011;10645;52.370;13.314;2024-01-30T02:33:04;4.33;;;1.87;;
20972;SDS011;10645;52.370;13.314;2024-01-30T02:35:31;1.90;;;1.30;;
20972;SDS011;10645;52.370;13.314;2024-01-30T02:37:57;1.37;;;1.33;;
20972;SDS011;10645;52.370;13.314;2024-01-30T02:40:23;1.30;;;1.30;;
20972;SDS011;10645;52.370;13.314;2024-01-30T02:42:49;3.53;;;2.93;;
20972;SDS011;10645;52.370;13.314;2024-01-30T02:45:15;3.13;;;2.97;;
20972;SDS011;10645;52.370;13.314;2024-01-30T02:47:41;2.27;;;2.17;;
20972;SDS011;10645;52.370;13.314;2024-01-30T02:50:07;4.37;;;2.23;;
20972;SDS011;10645;52.370;13.314;2024-01-30T02:52:34;3.90;;;1.90;;
20972;SDS011;10645;52.370;13.314;2024-01-30T02:55:00;1.80;;;1.63;;
20972;SDS011;10645;52.370;13.314;2024-01-30T02:57:28;3.37;;;3.00;;
20972;SDS011;10645;52.370;13.314;2024-01-30T02:59:54;1.53;;;1.43;;
20972;SDS011;10645;52.370;13.314;2024-01-30T03:02:20;3.87;;;2.93;;
20972;SDS011;10645;52.370;13.314;2024-01-30T03:04:46;1.60;;;1.50;;
20972;SDS011;10645;52.370;13.314;2024-01-30T03:07:12;2.40;;;2.20;;
20972;SDS011;10645;52.370;13.314;2024-01-30T03:09:38;3.87;;;1.77;;
20972;SDS011;10645;52.370;13.314;2024-01-30T03:12:08;0.90;;;0.90;;
20972;SDS011;10645;52.370;13.314;2024-01-30T03:14:34;10.27;;;1.67;;
20972;SDS011;10645;52.370;13.314;2024-01-30T03:17:00;2.43;;;2.23;;
20972;SDS011;10645;52.370;13.314;2024-01-30T03:19:26;1.97;;;0.93;;
20972;SDS011;10645;52.370;13.314;2024-01-30T03:21:52;2.27;;;1.90;;
20972;SDS011;10645;52.370;13.314;2024-01-30T03:24:18;3.03;;;2.80;;
20972;SDS011;10645;52.370;13.314;2024-01-30T03:26:44;1.83;;;1.73;;
20972;SDS011;10645;52.370;13.314;2024-01-30T03:29:10;3.70;;;1.00;;
20972;SDS011;10645;52.370;13.314;2024-01-30T03:31:36;2.80;;;2.60;;
20972;SDS011;10645;52.370;13.314;2024-01-30T03:34:02;2.23;;;1.90;;
20972;SDS011;10645;52.370;13.314;2024-01-30T03:36:28;1.83;;;1.47;;
20972;SDS011;10645;52.370;13.314;2024-01-30T03:38:58;1.93;;;1.80;;
20972;SDS011;10645;52.370;13.314;2024-01-30T03:41:24;0.80;;;0.80;;
20972;SDS011;10645;52.370;13.314;2024-01-30T03:43:50;1.50;;;1.40;;
20972;SDS011;10645;52.370;13.314;2024-01-30T03:46:16;1.93;;;1.83;;
20972;SDS011;10645;52.370;13.314;2024-01-30T03:48:42;0.63;;;0.57;;
20972;SDS011;10645;52.370;13.314;2024-01-30T03:51:09;1.90;;;1.80;;
20972;SDS011;10645;52.370;13.314;2024-01-30T03:53:40;1.27;;;1.17;;
20972;SDS011;10645;52.370;13.314;2024-01-30T03:56:07;2.20;;;1.27;;
20972;SDS011;10645;52.370;13.314;2024-01-30T03:58:33;3.10;;;1.27;;
20972;SDS011;10645;52.370;13.314;2024-01-30T04:01:00;2.17;;;1.97;;
20972;SDS011;10645;52.370;13.314;2024-01-30T04:03:26;1.10;;;1.07;;
20972;SDS011;10645;52.370;13.314;2024-01-30T04:05:52;1.47;;;1.17;;
20972;SDS011;10645;52.370;13.314;2024-01-30T04:08:19;2.50;;;2.27;;
20972;SDS011;10645;52.370;13.314;2024-01-30T04:10:45;0.67;;;0.67;;
20972;SDS011;10645;52.370;13.314;2024-01-30T04:13:12;1.30;;;1.20;;
20972;SDS011;10645;52.370;13.314;2024-01-30T04:15:38;2.47;;;1.70;;
20972;SDS011;10645;52.370;13.314;2024-01-30T04:18:05;3.33;;;2.17;;
20972;SDS011;10645;52.370;13.314;2024-01-30T04:20:31;2.20;;;2.10;;
20972;SDS011;10645;52.370;13.314;2024-01-30T04:22:57;1.80;;;1.60;;
20972;SDS011;10645;52.370;13.314;2024-01-30T04:25:23;4.03;;;2.40;;
20972;SDS011;10645;52.370;13.314;2024-01-30T04:27:49;2.37;;;1.50;;
20972;SDS011;10645;52.370;13.314;2024-01-30T04:30:15;2.90;;;1.50;;
20972;SDS011;10645;52.370;13.314;2024-01-30T04:32:42;2.27;;;1.57;;
20972;SDS011;10645;52.370;13.314;2024-01-30T04:35:09;0.97;;;0.97;;
20972;SDS011;10645;52.370;13.314;2024-01-30T04:37:35;3.67;;;3.37;;
20972;SDS011;10645;52.370;13.314;2024-01-30T04:40:01;2.33;;;1.83;;
20972;SDS011;10645;52.370;13.314;2024-01-30T04:42:28;1.40;;;1.30;;
20972;SDS011;10645;52.370;13.314;2024-01-30T04:44:54;3.47;;;1.93;;
20972;SDS011;10645;52.370;13.314;2024-01-30T04:47:20;9.13;;;5.43;;
20972;SDS011;10645;52.370;13.314;2024-01-30T04:49:46;16.77;;;11.43;;
20972;SDS011;10645;52.370;13.314;2024-01-30T04:52:12;74.90;;;38.30;;
20972;SDS011;10645;52.370;13.314;2024-01-30T04:54:39;27.77;;;14.63;;
20972;SDS011;10645;52.370;13.314;2024-01-30T04:57:05;27.90;;;22.17;;
20972;SDS011;10645;52.370;13.314;2024-01-30T04:59:35;18.80;;;15.20;;
20972;SDS011;10645;52.370;13.314;2024-01-30T05:02:02;18.37;;;12.53;;
20972;SDS011;10645;52.370;13.314;2024-01-30T05:04:28;12.50;;;5.07;;
20972;SDS011;10645;52.370;13.314;2024-01-30T05:06:54;6.57;;;4.30;;
20972;SDS011;10645;52.370;13.314;2024-01-30T05:09:20;0.93;;;0.93;;
20972;SDS011;10645;52.370;13.314;2024-01-30T05:11:46;13.57;;;3.23;;
20972;SDS011;10645;52.370;13.314;2024-01-30T05:14:12;2.57;;;2.10;;
20972;SDS011;10645;52.370;13.314;2024-01-30T05:16:40;2.03;;;1.93;;
20972;SDS011;10645;52.370;13.314;2024-01-30T05:19:08;2.83;;;2.63;;
20972;SDS011;10645;52.370;13.314;2024-01-30T05:21:34;0.73;;;0.73;;
20972;SDS011;10645;52.370;13.314;2024-01-30T05:24:00;2.90;;;2.00;;
20972;SDS011;10645;52.370;13.314;2024-01-30T05:26:26;2.50;;;2.30;;
20972;SDS011;10645;52.370;13.314;2024-01-30T05:28:52;3.87;;;1.83;;
20972;SDS011;10645;52.370;13.314;2024-01-30T05:31:18;1.67;;;1.57;;
20972;SDS011;10645;52.370;13.314;2024-01-30T05:33:44;2.77;;;2.60;;
20972;SDS011;10645;52.370;13.314;2024-01-30T05:36:11;1.93;;;1.83;;
20972;SDS011;10645;52.370;13.314;2024-01-30T05:38:39;4.73;;;2.33;;
20972;SDS011;10645;52.370;13.314;2024-01-30T05:41:05;3.33;;;3.03;;
20972;SDS011;10645;52.370;13.314;2024-01-30T05:43:31;2.63;;;2.10;;
20972;SDS011;10645;52.370;13.314;2024-01-30T05:45:57;3.10;;;2.90;;
20972;SDS011;10645;52.370;13.314;2024-01-30T05:48:23;5.40;;;2.87;;
20972;SDS011;10645;52.370;13.314;2024-01-30T05:50:49;3.70;;;2.47;;
20972;SDS011;10645;52.370;13.314;2024-01-30T05:53:15;2.80;;;2.33;;
20972;SDS011;10645;52.370;13.314;2024-01-30T05:55:41;3.23;;;2.93;;
20972;SDS011;10645;52.370;13.314;2024-01-30T05:58:07;4.87;;;2.83;;
20972;SDS011;10645;52.370;13.314;2024-01-30T06:00:33;1.73;;;1.63;;
20972;SDS011;10645;52.370;13.314;2024-01-30T06:03:00;2.10;;;1.80;;
20972;SDS011;10645;52.370;13.314;2024-01-30T06:05:26;11.60;;;3.60;;
20972;SDS011;10645;52.370;13.314;2024-01-30T06:07:52;3.43;;;2.63;;
20972;SDS011;10645;52.370;13.314;2024-01-30T06:10:18;3.97;;;1.83;;
20972;SDS011;10645;52.370;13.314;2024-01-30T06:12:44;3.33;;;2.03;;
20972;SDS011;10645;52.370;13.314;2024-01-30T06:15:10;3.37;;;3.17;;
20972;SDS011;10645;52.370;13.314;2024-01-30T06:17:38;3.60;;;2.73;;
20972;SDS011;10645;52.370;13.314;2024-01-30T06:20:05;1.20;;;1.10;;
20972;SDS011;10645;52.370;13.314;2024-01-30T06:22:31;5.90;;;3.17;;
20972;SDS011;10645;52.370;13.314;2024-01-30T06:24:58;2.60;;;2.30;;
20972;SDS011;10645;52.370;13.314;2024-01-30T06:27:24;1.73;;;1.43;;
20972;SDS011;10645;52.370;13.314;2024-01-30T06:29:50;1.90;;;1.80;;
20972;SDS011;10645;52.370;13.314;2024-01-30T06:32:16;1.67;;;1.57;;
20972;SDS011;10645;52.370;13.314;2024-01-30T06:34:42;2.60;;;2.40;;
20972;SDS011;10645;52.370;13.314;2024-01-30T06:37:09;2.53;;;2.43;;
20972;SDS011;10645;52.370;13.314;2024-01-30T06:39:36;2.60;;;2.40;;
20972;SDS011;10645;52.370;13.314;2024-01-30T06:42:02;3.47;;;3.17;;
20972;SDS011;10645;52.370;13.314;2024-01-30T06:44:28;3.00;;;2.50;;
20972;SDS011;10645;52.370;13.314;2024-01-30T06:46:54;3.80;;;2.87;;
20972;SDS011;10645;52.370;13.314;2024-01-30T06:49:20;1.40;;;1.30;;
20972;SDS011;10645;52.370;13.314;2024-01-30T06:51:47;2.93;;;2.47;;
20972;SDS011;10645;52.370;13.314;2024-01-30T06:54:13;1.97;;;1.67;;
20972;SDS011;10645;52.370;13.314;2024-01-30T06:56:39;5.40;;;3.07;;
20972;SDS011;10645;52.370;13.314;2024-01-30T06:59:06;2.50;;;2.30;;
20972;SDS011;10645;52.370;13.314;2024-01-30T07:01:32;2.43;;;2.13;;
20972;SDS011;10645;52.370;13.314;2024-01-30T07:03:58;3.00;;;2.90;;
20972;SDS011;10645;52.370;13.314;2024-01-30T07:06:24;6.10;;;3.70;;
20972;SDS011;10645;52.370;13.314;2024-01-30T07:08:50;4.90;;;2.90;;
20972;SDS011;10645;52.370;13.314;2024-01-30T07:11:20;2.50;;;2.03;;
20972;SDS011;10645;52.370;13.314;2024-01-30T07:13:54;2.07;;;1.83;;
20972;SDS011;10645;52.370;13.314;2024-01-30T07:16:20;3.43;;;1.77;;
20972;SDS011;10645;52.370;13.314;2024-01-30T07:18:46;6.03;;;3.13;;
20972;SDS011;10645;52.370;13.314;2024-01-30T07:21:12;1.53;;;1.43;;
20972;SDS011;10645;52.370;13.314;2024-01-30T07:23:38;3.73;;;3.43;;
20972;SDS011;10645;52.370;13.314;2024-01-30T07:26:04;5.07;;;1.53;;
20972;SDS011;10645;52.370;13.314;2024-01-30T07:28:32;3.27;;;2.97;;
20972;SDS011;10645;52.370;13.314;2024-01-30T07:30:58;1.53;;;1.43;;
20972;SDS011;10645;52.370;13.314;2024-01-30T07:33:25;4.47;;;1.97;;
20972;SDS011;10645;52.370;13.314;2024-01-30T07:35:54;2.93;;;2.20;;
20972;SDS011;10645;52.370;13.314;2024-01-30T07:38:20;2.67;;;2.47;;
20972;SDS011;10645;52.370;13.314;2024-01-30T07:40:46;3.83;;;3.27;;
20972;SDS011;10645;52.370;13.314;2024-01-30T07:43:12;9.30;;;2.27;;
20972;SDS011;10645;52.370;13.314;2024-01-30T07:45:39;2.40;;;2.13;;
20972;SDS011;10645;52.370;13.314;2024-01-30T07:48:08;1.70;;;1.60;;
20972;SDS011;10645;52.370;13.314;2024-01-30T07:50:34;10.60;;;2.77;;
20972;SDS011;10645;52.370;13.314;2024-01-30T07:53:00;2.83;;;2.53;;
20972;SDS011;10645;52.370;13.314;2024-01-30T07:55:26;1.60;;;1.50;;
20972;SDS011;10645;52.370;13.314;2024-01-30T07:57:57;3.27;;;2.47;;
20972;SDS011;10645;52.370;13.314;2024-01-30T08:00:24;4.73;;;3.03;;
20972;SDS011;10645;52.370;13.314;2024-01-30T08:02:50;1.93;;;1.63;;
20972;SDS011;10645;52.370;13.314;2024-01-30T08:05:19;2.80;;;2.60;;
20972;SDS011;10645;52.370;13.314;2024-01-30T08:07:48;15.47;;;3.60;;
20972;SDS011;10645;52.370;13.314;2024-01-30T08:10:14;4.87;;;3.27;;
20972;SDS011;10645;52.370;13.314;2024-01-30T08:12:42;6.80;;;3.20;;
20972;SDS011;10645;52.370;13.314;2024-01-30T08:15:08;2.50;;;2.30;;
20972;SDS011;10645;52.370;13.314;2024-01-30T08:17:34;4.80;;;4.40;;
20972;SDS011;10645;52.370;13.314;2024-01-30T08:20:00;2.63;;;2.23;;
20972;SDS011;10645;52.370;13.314;2024-01-30T08:22:26;1.70;;;1.23;;
20972;SDS011;10645;52.370;13.314;2024-01-30T08:24:52;6.47;;;1.90;;
20972;SDS011;10645;52.370;13.314;2024-01-30T08:27:19;3.80;;;3.50;;
20972;SDS011;10645;52.370;13.314;2024-01-30T08:29:45;2.70;;;2.50;;
20972;SDS011;10645;52.370;13.314;2024-01-30T08:32:11;2.87;;;2.10;;
20972;SDS011;10645;52.370;13.314;2024-01-30T08:34:37;2.93;;;2.57;;
20972;SDS011;10645;52.370;13.314;2024-01-30T08:37:03;3.67;;;3.47;;
20972;SDS011;10645;52.370;13.314;2024-01-30T08:39:29;5.27;;;2.87;;
20972;SDS011;10645;52.370;13.314;2024-01-30T08:41:56;3.60;;;2.60;;
20972;SDS011;10645;52.370;13.314;2024-01-30T08:44:22;4.67;;;2.83;;
20972;SDS011;10645;52.370;13.314;2024-01-30T08:46:48;5.73;;;4.30;;
20972;SDS011;10645;52.370;13.314;2024-01-30T08:49:19;3.97;;;2.60;;
20972;SDS011;10645;52.370;13.314;2024-01-30T08:51:45;7.20;;;2.53;;
20972;SDS011;10645;52.370;13.314;2024-01-30T08:54:11;4.83;;;2.57;;
20972;SDS011;10645;52.370;13.314;2024-01-30T08:56:37;8.23;;;4.30;;
20972;SDS011;10645;52.370;13.314;2024-01-30T08:59:03;5.77;;;3.60;;
20972;SDS011;10645;52.370;13.314;2024-01-30T09:01:30;4.27;;;3.33;;
20972;SDS011;10645;52.370;13.314;2024-01-30T09:03:56;4.70;;;2.93;;
20972;SDS011;10645;52.370;13.314;2024-01-30T09:06:22;7.80;;;4.27;;
20972;SDS011;10645;52.370;13.314;2024-01-30T09:08:50;3.30;;;2.67;;
20972;SDS011;10645;52.370;13.314;2024-01-30T09:11:16;3.53;;;3.00;;
20972;SDS011;10645;52.370;13.314;2024-01-30T09:13:42;3.20;;;2.87;;
20972;SDS011;10645;52.370;13.314;2024-01-30T09:16:09;2.83;;;2.20;;
20972;SDS011;10645;52.370;13.314;2024-01-30T09:18:35;9.47;;;3.53;;
20972;SDS011;10645;52.370;13.314;2024-01-30T09:21:01;4.47;;;4.00;;
20972;SDS011;10645;52.370;13.314;2024-01-30T09:23:27;2.97;;;2.77;;
20972;SDS011;10645;52.370;13.314;2024-01-30T09:25:53;6.10;;;3.53;;
20972;SDS011;10645;52.370;13.314;2024-01-30T09:28:20;2.90;;;2.67;;
20972;SDS011;10645;52.370;13.314;2024-01-30T09:30:46;5.63;;;2.77;;
20972;SDS011;10645;52.370;13.314;2024-01-30T09:33:12;4.23;;;3.33;;
20972;SDS011;10645;52.370;13.314;2024-01-30T09:35:38;3.60;;;2.43;;
20972;SDS011;10645;52.370;13.314;2024-01-30T09:38:04;6.97;;;4.07;;
20972;SDS011;10645;52.370;13.314;2024-01-30T09:40:30;5.70;;;3.20;;
20972;SDS011;10645;52.370;13.314;2024-01-30T09:42:56;3.73;;;3.30;;
20972;SDS011;10645;52.370;13.314;2024-01-30T09:45:26;4.13;;;2.50;;
20972;SDS011;10645;52.370;13.314;2024-01-30T09:47:52;2.93;;;2.17;;
20972;SDS011;10645;52.370;13.314;2024-01-30T09:50:19;3.75;;;2.95;;
20972;SDS011;10645;52.370;13.314;2024-01-30T09:52:46;2.78;;;1.98;;
20972;SDS011;10645;52.370;13.314;2024-01-30T09:55:12;4.63;;;3.95;;
20972;SDS011;10645;52.370;13.314;2024-01-30T09:57:39;3.30;;;2.25;;
20972;SDS011;10645;52.370;13.314;2024-01-30T10:00:07;6.13;;;2.17;;
20972;SDS011;10645;52.370;13.314;2024-01-30T10:02:40;3.72;;;3.33;;
20972;SDS011;10645;52.370;13.314;2024-01-30T10:05:07;1.95;;;1.75;;
20972;SDS011;10645;52.370;13.314;2024-01-30T10:07:34;4.80;;;2.38;;
20972;SDS011;10645;52.370;13.314;2024-01-30T10:10:00;4.83;;;2.67;;
20972;SDS011;10645;52.370;13.314;2024-01-30T10:12:26;3.92;;;2.92;;
20972;SDS011;10645;52.370;13.314;2024-01-30T10:14:55;2.67;;;1.80;;
20972;SDS011;10645;52.370;13.314;2024-01-30T10:17:24;4.88;;;2.13;;
20972;SDS011;10645;52.370;13.314;2024-01-30T10:19:51;3.05;;;2.40;;
20972;SDS011;10645;52.370;13.314;2024-01-30T10:22:17;3.20;;;2.42;;
20972;SDS011;10645;52.370;13.314;2024-01-30T10:24:43;3.47;;;2.65;;
20972;SDS011;10645;52.370;13.314;2024-01-30T10:27:10;2.38;;;2.17;;
20972;SDS011;10645;52.370;13.314;2024-01-30T10:29:37;8.45;;;4.57;;
20972;SDS011;10645;52.370;13.314;2024-01-30T10:32:03;2.58;;;2.38;;
20972;SDS011;10645;52.370;13.314;2024-01-30T10:34:30;2.20;;;1.83;;
20972;SDS011;10645;52.370;13.314;2024-01-30T10:37:16;6.47;;;4.10;;
20972;SDS011;10645;52.370;13.314;2024-01-30T10:39:44;4.70;;;3.35;;
20972;SDS011;10645;52.370;13.314;2024-01-30T10:42:15;3.40;;;3.00;;
20972;SDS011;10645;52.370;13.314;2024-01-30T10:47:32;4.82;;;3.40;;
20972;SDS011;10645;52.370;13.314;2024-01-30T10:50:02;1.98;;;1.73;;
20972;SDS011;10645;52.370;13.314;2024-01-30T10:52:31;4.53;;;2.40;;
20972;SDS011;10645;52.370;13.314;2024-01-30T10:54:58;2.80;;;2.60;;
20972;SDS011;10645;52.370;13.314;2024-01-30T10:57:25;4.82;;;4.32;;
20972;SDS011;10645;52.370;13.314;2024-01-30T10:59:52;3.25;;;2.95;;
20972;SDS011;10645;52.370;13.314;2024-01-30T11:02:22;5.95;;;2.55;;
20972;SDS011;10645;52.370;13.314;2024-01-30T11:04:49;3.85;;;3.03;;
20972;SDS011;10645;52.370;13.314;2024-01-30T11:07:24;4.85;;;3.00;;
20972;SDS011;10645;52.370;13.314;2024-01-30T11:12:26;6.65;;;3.47;;
20972;SDS011;10645;52.370;13.314;2024-01-30T11:15:12;3.30;;;3.00;;
20972;SDS011;10645;52.370;13.314;2024-01-30T11:17:49;2.72;;;2.53;;
20972;SDS011;10645;52.370;13.314;2024-01-30T11:22:47;5.47;;;4.68;;
20972;SDS011;10645;52.370;13.314;2024-01-30T11:25:16;3.17;;;2.83;;
20972;SDS011;10645;52.370;13.314;2024-01-30T11:27:44;5.45;;;3.22;;
20972;SDS011;10645;52.370;13.314;2024-01-30T11:30:24;4.13;;;2.53;;
20972;SDS011;10645;52.370;13.314;2024-01-30T11:35:33;2.80;;;2.22;;
20972;SDS011;10645;52.370;13.314;2024-01-30T11:38:06;3.65;;;2.42;;
20972;SDS011;10645;52.370;13.314;2024-01-30T11:40:37;3.03;;;2.80;;
20972;SDS011;10645;52.370;13.314;2024-01-30T11:43:04;5.22;;;3.13;;
20972;SDS011;10645;52.370;13.314;2024-01-30T11:45:32;5.80;;;3.72;;
20972;SDS011;10645;52.370;13.314;2024-01-30T11:47:58;2.28;;;2.10;;
20972;SDS011;10645;52.370;13.314;2024-01-30T11:50:29;5.28;;;2.97;;
20972;SDS011;10645;52.370;13.314;2024-01-30T11:52:55;3.92;;;2.30;;
20972;SDS011;10645;52.370;13.314;2024-01-30T11:55:23;6.13;;;2.17;;
20972;SDS011;10645;52.370;13.314;2024-01-30T11:57:49;4.30;;;2.55;;
20972;SDS011;10645;52.370;13.314;2024-01-30T12:00:16;3.92;;;2.75;;
20972;SDS011;10645;52.370;13.314;2024-01-30T12:02:44;2.40;;;2.20;;
20972;SDS011;10645;52.370;13.314;2024-01-30T12:05:14;2.92;;;1.70;;
20972;SDS011;10645;52.370;13.314;2024-01-30T12:07:43;3.30;;;3.05;;
20972;SDS011;10645;52.370;13.314;2024-01-30T12:10:10;6.10;;;2.85;;
20972;SDS011;10645;52.370;13.314;2024-01-30T12:12:36;4.15;;;2.45;;
20972;SDS011;10645;52.370;13.314;2024-01-30T12:15:03;6.60;;;2.78;;
20972;SDS011;10645;52.370;13.314;2024-01-30T12:17:31;3.97;;;2.95;;
20972;SDS011;10645;52.370;13.314;2024-01-30T12:20:10;3.97;;;2.28;;
20972;SDS011;10645;52.370;13.314;2024-01-30T12:22:40;3.95;;;3.08;;
20972;SDS011;10645;52.370;13.314;2024-01-30T12:25:11;3.45;;;2.53;;
20972;SDS011;10645;52.370;13.314;2024-01-30T12:27:44;5.18;;;3.13;;
20972;SDS011;10645;52.370;13.314;2024-01-30T12:30:12;3.13;;;2.85;;
20972;SDS011;10645;52.370;13.314;2024-01-30T12:32:39;5.15;;;3.30;;
20972;SDS011;10645;52.370;13.314;2024-01-30T12:35:11;7.10;;;3.65;;
20972;SDS011;10645;52.370;13.314;2024-01-30T12:37:38;3.10;;;2.35;;
20972;SDS011;10645;52.370;13.314;2024-01-30T12:40:04;2.53;;;2.10;;
20972;SDS011;10645;52.370;13.314;2024-01-30T12:42:31;5.22;;;2.63;;
20972;SDS011;10645;52.370;13.314;2024-01-30T12:44:58;3.00;;;2.58;;
20972;SDS011;10645;52.370;13.314;2024-01-30T12:47:24;3.10;;;2.28;;
20972;SDS011;10645;52.370;13.314;2024-01-30T12:49:51;4.43;;;2.22;;
20972;SDS011;10645;52.370;13.314;2024-01-30T12:52:19;2.63;;;2.10;;
20972;SDS011;10645;52.370;13.314;2024-01-30T12:54:47;5.85;;;3.22;;
20972;SDS011;10645;52.370;13.314;2024-01-30T12:57:17;3.50;;;2.33;;
20972;SDS011;10645;52.370;13.314;2024-01-30T12:59:44;3.63;;;2.63;;
20972;SDS011;10645;52.370;13.314;2024-01-30T13:02:11;3.22;;;2.55;;
20972;SDS011;10645;52.370;13.314;2024-01-30T13:04:38;8.07;;;2.40;;
20972;SDS011;10645;52.370;13.314;2024-01-30T13:07:05;6.00;;;4.15;;
20972;SDS011;10645;52.370;13.314;2024-01-30T13:09:32;3.85;;;3.28;;
20972;SDS011;10645;52.370;13.314;2024-01-30T13:11:58;4.20;;;2.72;;
20972;SDS011;10645;52.370;13.314;2024-01-30T13:14:25;3.35;;;3.05;;
20972;SDS011;10645;52.370;13.314;2024-01-30T13:16:52;3.05;;;2.75;;
20972;SDS011;10645;52.370;13.314;2024-01-30T13:19:18;2.92;;;2.80;;
20972;SDS011;10645;52.370;13.314;2024-01-30T13:21:44;3.50;;;2.85;;
20972;SDS011;10645;52.370;13.314;2024-01-30T13:24:11;4.40;;;3.85;;
20972;SDS011;10645;52.370;13.314;2024-01-30T13:26:38;3.60;;;2.58;;
20972;SDS011;10645;52.370;13.314;2024-01-30T13:29:04;3.78;;;3.05;;
20972;SDS011;10645;52.370;13.314;2024-01-30T13:31:30;4.43;;;2.40;;
20972;SDS011;10645;52.370;13.314;2024-01-30T13:33:57;4.22;;;3.30;;
20972;SDS011;10645;52.370;13.314;2024-01-30T13:36:23;5.50;;;3.20;;
20972;SDS011;10645;52.370;13.314;2024-01-30T13:38:49;3.33;;;3.00;;
20972;SDS011;10645;52.370;13.314;2024-01-30T13:41:15;4.30;;;1.52;;
20972;SDS011;10645;52.370;13.314;2024-01-30T13:43:43;2.80;;;2.58;;
20972;SDS011;10645;52.370;13.314;2024-01-30T13:46:10;4.70;;;3.05;;
20972;SDS011;10645;52.370;13.314;2024-01-30T13:48:36;3.08;;;2.80;;
20972;SDS011;10645;52.370;13.314;2024-01-30T13:51:02;2.97;;;2.78;;
20972;SDS011;10645;52.370;13.314;2024-01-30T13:53:29;2.50;;;2.30;;
20972;SDS011;10645;52.370;13.314;2024-01-30T13:55:55;5.93;;;3.72;;
20972;SDS011;10645;52.370;13.314;2024-01-30T13:58:21;6.75;;;3.22;;
20972;SDS011;10645;52.370;13.314;2024-01-30T14:00:47;4.75;;;3.30;;
20972;SDS011;10645;52.370;13.314;2024-01-30T14:03:15;3.47;;;3.20;;
20972;SDS011;10645;52.370;13.314;2024-01-30T14:05:42;2.60;;;2.40;;
20972;SDS011;10645;52.370;13.314;2024-01-30T14:08:09;5.00;;;4.53;;
20972;SDS011;10645;52.370;13.314;2024-01-30T14:10:36;4.30;;;3.58;;
20972;SDS011;10645;52.370;13.314;2024-01-30T14:13:02;2.10;;;2.00;;
20972;SDS011;10645;52.370;13.314;2024-01-30T14:15:29;6.03;;;3.38;;
20972;SDS011;10645;52.370;13.314;2024-01-30T14:17:55;3.28;;;2.67;;
20972;SDS011;10645;52.370;13.314;2024-01-30T14:20:21;3.60;;;2.35;;
20972;SDS011;10645;52.370;13.314;2024-01-30T14:22:47;2.67;;;1.95;;
20972;SDS011;10645;52.370;13.314;2024-01-30T14:25:14;3.13;;;2.22;;
20972;SDS011;10645;52.370;13.314;2024-01-30T14:27:41;3.50;;;3.20;;
20972;SDS011;10645;52.370;13.314;2024-01-30T14:30:09;6.38;;;2.15;;
20972;SDS011;10645;52.370;13.314;2024-01-30T14:32:36;4.43;;;4.03;;
20972;SDS011;10645;52.370;13.314;2024-01-30T14:35:04;4.00;;;2.72;;
20972;SDS011;10645;52.370;13.314;2024-01-30T14:37:30;3.08;;;2.78;;
20972;SDS011;10645;52.370;13.314;2024-01-30T14:39:57;8.15;;;3.95;;
20972;SDS011;10645;52.370;13.314;2024-01-30T14:42:23;4.15;;;3.08;;